Time;durP1;ratioP1;P1;durP2;ratioP2;P2;SDS_P1;SDS_P2;PMS_P1;PMS_P2;Temp;Humidity;BMP_temperature;BMP_pressure;BME280_temperature;BME280_humidity;BME280_pressure;Samples;Min_cycle;Max_cycle;Signal;HPM_P1;HPM_P2
2022/10/14 00:01:04;;;;;;;;;5.00;5.00;;;;;20.75;47.79;100967.09;5037110;28;45379;-60
2022/10/14 00:03:30;;;;;;;;;7.25;5.00;;;;;20.75;47.61;100966.25;5036344;28;45477;-61
2022/10/14 00:05:55;;;;;;;;;4.25;4.25;;;;;20.77;47.83;100967.03;5037277;28;45321;-65
2022/10/14 00:08:21;;;;;;;;;5.00;5.00;;;;;20.76;47.77;100973.22;5037781;28;45483;-65
2022/10/14 00:10:46;;;;;;;;;5.00;5.00;;;;;20.76;47.61;100971.44;5037086;28;46425;-66
2022/10/14 00:13:12;;;;;;;;;5.75;5.00;;;;;20.76;47.46;100967.97;5036738;28;48467;-64
2022/10/14 00:15:40;;;;;;;;;5.00;5.00;;;;;20.77;47.75;100961.75;5037342;28;45842;-64
2022/10/14 00:18:07;;;;;;;;;5.50;5.50;;;;;20.77;47.90;100959.97;5037148;28;45418;-63
2022/10/14 00:20:33;;;;;;;;;4.00;4.00;;;;;20.76;47.89;100957.41;5036962;28;45263;-63
2022/10/14 00:22:59;;;;;;;;;7.00;5.00;;;;;20.76;47.84;100953.00;5036671;28;45812;-65
2022/10/14 00:25:25;;;;;;;;;4.50;4.50;;;;;20.76;47.71;100954.78;5037231;28;45343;-65
2022/10/14 00:27:51;;;;;;;;;6.00;4.75;;;;;20.75;47.95;100950.44;5037684;28;45243;-63
2022/10/14 00:30:17;;;;;;;;;5.50;4.00;;;;;20.76;47.50;100950.34;5036642;28;45370;-61
2022/10/14 00:32:43;;;;;;;;;5.00;5.00;;;;;20.76;47.91;100950.34;5036858;28;45280;-61
2022/10/14 00:35:08;;;;;;;;;5.00;5.00;;;;;20.75;47.89;100938.13;5037241;28;45311;-60
2022/10/14 00:37:33;;;;;;;;;5.00;3.75;;;;;20.76;47.89;100944.25;5036908;28;45279;-62
2022/10/14 00:39:59;;;;;;;;;4.00;4.00;;;;;20.76;47.83;100936.34;5036362;28;45406;-61
2022/10/14 00:42:24;;;;;;;;;5.00;3.75;;;;;20.77;47.75;100927.50;5036446;28;50027;-62
2022/10/14 00:44:49;;;;;;;;;4.25;4.25;;;;;20.77;47.90;100919.63;5036784;28;50934;-62
2022/10/14 00:47:15;;;;;;;;;4.33;4.33;;;;;20.77;47.93;100924.88;5036713;28;45608;-61
2022/10/14 00:49:43;;;;;;;;;5.25;4.00;;;;;20.77;47.87;100922.25;5036470;28;45349;-61
2022/10/14 00:52:18;;;;;;;;;4.00;4.00;;;;;20.74;48.19;100922.38;5036203;28;45269;-63
2022/10/14 00:54:48;;;;;;;;;6.75;3.75;;;;;20.76;47.63;100920.53;5036750;28;45339;-62
2022/10/14 00:57:15;;;;;;;;;4.75;4.00;;;;;20.77;47.76;100916.97;5036587;28;45319;-62
2022/10/14 00:59:41;;;;;;;;;4.00;4.00;;;;;20.77;47.96;100919.63;5036392;28;46168;-61
2022/10/14 01:02:06;;;;;;;;;3.00;3.00;;;;;20.77;47.77;100916.97;5034728;28;45377;-61
2022/10/14 01:04:34;;;;;;;;;4.50;4.50;;;;;20.76;48.01;100915.28;5036412;28;45238;-61
2022/10/14 01:07:11;;;;;;;;;4.00;4.00;;;;;20.77;47.82;100916.97;5035150;28;45581;-62
2022/10/14 01:09:52;;;;;;;;;2.75;2.50;;;;;20.76;47.77;100913.47;5034939;28;46204;-65
2022/10/14 01:12:20;;;;;;;;;4.50;3.75;;;;;20.77;47.64;100907.28;5036782;28;45810;-65
2022/10/14 01:14:58;;;;;;;;;2.75;2.75;;;;;20.75;47.69;100903.03;5036253;28;45425;-62
2022/10/14 01:17:33;;;;;;;;;3.75;3.75;;;;;20.77;48.11;100911.72;5036400;28;45472;-62
2022/10/14 01:20:31;;;;;;;;;4.75;4.00;;;;;20.77;48.11;100904.66;5035969;28;45441;-64
2022/10/14 01:23:30;;;;;;;;;4.00;3.25;;;;;20.73;48.04;100891.69;5017912;28;45381;-59
2022/10/14 01:26:10;;;;;;;;;4.00;3.25;;;;;20.76;48.09;100894.19;5035969;28;45421;-63
2022/10/14 01:29:04;;;;;;;;;2.00;1.50;;;;;20.75;47.67;100884.59;5036394;28;45322;-62
2022/10/14 01:31:34;;;;;;;;;4.25;2.75;;;;;20.76;47.71;100888.94;5034559;28;45500;-60
2022/10/14 01:34:03;;;;;;;;;4.00;4.00;;;;;20.76;47.88;100891.56;5035558;28;45315;-62
2022/10/14 01:36:47;;;;;;;;;4.00;4.00;;;;;20.76;48.16;100888.94;5034666;28;45516;-63
2022/10/14 01:39:15;;;;;;;;;3.00;3.00;;;;;20.76;48.10;100887.13;5036008;28;45399;-62
2022/10/14 01:41:47;;;;;;;;;3.25;3.25;;;;;20.74;47.92;100885.50;5035900;28;45333;-63
2022/10/14 01:44:17;;;;;;;;;4.00;4.00;;;;;20.77;47.96;100880.09;5034307;28;45449;-60
2022/10/14 01:46:48;;;;;;;;;3.00;3.00;;;;;20.76;47.75;100883.66;5036048;28;45441;-59
2022/10/14 01:49:36;;;;;;;;;2.75;2.75;;;;;20.76;47.84;100873.97;5035684;28;45406;-61
2022/10/14 01:52:10;;;;;;;;;3.00;3.00;;;;;20.75;48.22;100871.44;5035398;28;46026;-60
2022/10/14 01:54:39;;;;;;;;;3.00;3.00;;;;;20.76;48.00;100875.75;5035508;28;45881;-60
2022/10/14 01:57:10;;;;;;;;;3.50;3.50;;;;;20.76;48.25;100875.75;5035630;28;45271;-61
2022/10/14 01:59:38;;;;;;;;;1.25;1.25;;;;;20.76;48.40;100879.25;5036006;28;45855;-60
2022/10/14 02:02:04;;;;;;;;;3.00;3.00;;;;;20.76;48.41;100868.69;5035113;28;46563;-60
2022/10/14 02:04:29;;;;;;;;;2.50;2.50;;;;;20.73;48.20;100874.09;5035731;28;45223;-60
2022/10/14 02:07:03;;;;;;;;;2.00;2.00;;;;;20.74;48.12;100873.19;5035600;28;45462;-60
2022/10/14 02:09:54;;;;;;;;;3.25;3.25;;;;;20.75;48.08;100868.78;5035941;28;45383;-61
2022/10/14 02:12:44;;;;;;;;;2.75;2.50;;;;;20.77;47.95;100872.19;5035827;28;47034;-61
2022/10/14 02:15:24;;;;;;;;;3.00;2.25;;;;;20.75;48.15;100867.00;5035202;28;45686;-61
2022/10/14 02:18:03;;;;;;;;;3.25;3.00;;;;;20.75;48.11;100858.25;5035989;28;45389;-63
2022/10/14 02:20:34;;;;;;;;;3.00;3.00;;;;;20.75;47.96;100850.34;5035816;28;45335;-61
2022/10/14 02:23:13;;;;;;;;;2.00;2.00;;;;;20.76;48.21;100850.25;5033773;28;47009;-65
2022/10/14 02:25:42;;;;;;;;;2.00;2.00;;;;;20.75;48.23;100856.47;5035404;28;45238;-65
2022/10/14 02:28:10;;;;;;;;;0.00;0.00;;;;;20.75;48.31;100858.25;5037817;28;45936;-63
2022/10/14 02:30:40;;;;;;;;;2.00;2.00;;;;;20.74;47.83;100853.91;5037826;28;45473;-64
2022/10/14 02:33:06;;;;;;;;;3.00;3.00;;;;;20.76;48.42;100857.34;5038438;28;45600;-65
2022/10/14 02:35:33;;;;;;;;;4.00;2.50;;;;;20.75;47.92;100853.81;5037404;28;45529;-65
2022/10/14 02:38:01;;;;;;;;;2.00;2.00;;;;;20.76;48.15;100842.38;5037275;28;45506;-64
2022/10/14 02:40:34;;;;;;;;;2.50;2.00;;;;;20.76;48.07;100846.78;5038800;28;45353;-65
2022/10/14 02:43:00;;;;;;;;;3.00;3.00;;;;;20.75;48.38;100839.81;5037154;28;46051;-64
2022/10/14 02:45:26;;;;;;;;;2.50;2.00;;;;;20.75;48.07;100851.19;5037428;28;45347;-63
2022/10/14 02:47:52;;;;;;;;;3.00;3.00;;;;;20.75;48.53;100845.94;5038913;28;45291;-65
2022/10/14 02:50:18;;;;;;;;;2.00;2.00;;;;;20.73;48.58;100839.03;5039180;28;45692;-65
2022/10/14 02:52:43;;;;;;;;;3.00;2.00;;;;;20.73;48.21;100836.38;5038354;28;45441;-63
2022/10/14 02:55:09;;;;;;;;;2.00;2.00;;;;;20.76;47.92;100833.63;5038010;28;45294;-66
2022/10/14 02:57:34;;;;;;;;;2.00;2.00;;;;;20.75;48.53;100840.66;5038684;28;45272;-61
2022/10/14 03:00:00;;;;;;;;;1.75;1.75;;;;;20.75;48.33;100837.19;5038146;28;45211;-60
2022/10/14 03:02:25;;;;;;;;;2.25;2.25;;;;;20.76;48.01;100842.38;5038019;28;46113;-60
2022/10/14 03:04:50;;;;;;;;;2.25;2.25;;;;;20.76;48.38;100836.25;5038857;28;45410;-61
2022/10/14 03:07:16;;;;;;;;;2.50;2.50;;;;;20.76;48.37;100847.63;5038002;28;49255;-60
2022/10/14 03:09:41;;;;;;;;;2.00;2.00;;;;;20.74;48.05;100838.09;5038557;28;45239;-60
2022/10/14 03:12:06;;;;;;;;;2.25;1.00;;;;;20.77;48.27;100848.50;5037855;28;45460;-60
2022/10/14 03:14:32;;;;;;;;;4.25;3.00;;;;;20.77;48.03;100843.22;5037483;28;58657;-62
2022/10/14 03:16:57;;;;;;;;;3.00;2.00;;;;;20.72;48.46;100839.94;5038006;28;45583;-63
2022/10/14 03:19:22;;;;;;;;;2.00;2.00;;;;;20.74;48.29;100840.72;5038387;28;45363;-59
2022/10/14 03:21:48;;;;;;;;;2.00;2.00;;;;;20.75;48.30;100839.81;5038272;28;45343;-60
2022/10/14 03:24:13;;;;;;;;;2.50;2.50;;;;;20.75;48.18;100845.09;5037632;28;45492;-62
2022/10/14 03:26:38;;;;;;;;;2.00;2.00;;;;;20.76;48.59;100838.88;5038119;28;45814;-61
2022/10/14 03:29:04;;;;;;;;;2.00;2.00;;;;;20.77;48.35;100840.59;5037963;28;45304;-60
2022/10/14 03:31:29;;;;;;;;;2.75;2.00;;;;;20.74;48.57;100835.47;5037744;28;46165;-61
2022/10/14 03:33:54;;;;;;;;;2.00;2.00;;;;;20.77;48.09;100843.22;5036306;28;45468;-64
2022/10/14 03:36:20;;;;;;;;;2.00;2.00;;;;;20.76;48.29;100833.63;5038249;28;45618;-62
2022/10/14 03:38:45;;;;;;;;;2.00;2.00;;;;;20.76;48.60;100831.81;5036719;28;45579;-61
2022/10/14 03:41:10;;;;;;;;;2.00;2.00;;;;;20.76;48.27;100831.00;5037416;28;46025;-61
2022/10/14 03:43:36;;;;;;;;;2.00;2.00;;;;;20.76;48.45;100825.72;5037681;28;45406;-60
2022/10/14 03:46:01;;;;;;;;;2.00;2.00;;;;;20.76;48.30;100826.56;5037061;28;55723;-61
2022/10/14 03:48:26;;;;;;;;;1.00;1.00;;;;;20.76;48.32;100823.09;5037954;28;45517;-62
2022/10/14 03:50:52;;;;;;;;;1.00;1.00;;;;;20.73;48.26;100821.41;5037788;28;45342;-60
2022/10/14 03:53:17;;;;;;;;;3.00;2.00;;;;;20.75;48.84;100819.59;5037816;28;45152;-61
2022/10/14 03:55:43;;;;;;;;;1.00;1.00;;;;;20.76;48.63;100818.66;5037218;28;49570;-61
2022/10/14 03:58:10;;;;;;;;;2.00;2.00;;;;;20.77;48.24;100824.78;5037459;28;45512;-61
2022/10/14 04:00:35;;;;;;;;;1.25;1.25;;;;;20.76;48.51;100828.34;5037345;28;45288;-61
2022/10/14 04:03:01;;;;;;;;;2.25;2.00;;;;;20.76;48.92;100831.00;5037073;28;45544;-59
2022/10/14 04:05:31;;;;;;;;;1.00;1.00;;;;;20.77;48.58;100827.44;5037462;28;45345;-60
2022/10/14 04:07:57;;;;;;;;;3.50;1.50;;;;;20.75;48.84;100824.84;5037312;28;45381;-62
2022/10/14 04:10:22;;;;;;;;;1.00;1.00;;;;;20.75;48.86;100829.28;5036568;28;46523;-60
2022/10/14 04:12:47;;;;;;;;;1.25;1.25;;;;;20.76;48.69;100831.81;5037532;28;45248;-60
2022/10/14 04:15:13;;;;;;;;;1.00;1.00;;;;;20.77;48.68;100835.31;5036813;28;45245;-60
2022/10/14 04:17:38;;;;;;;;;2.00;2.00;;;;;20.75;48.80;100824.84;5037488;28;45228;-62
2022/10/14 04:20:04;;;;;;;;;2.00;2.00;;;;;20.77;48.58;100835.31;5036839;28;46043;-62
2022/10/14 04:22:29;;;;;;;;;3.00;1.50;;;;;20.75;48.64;100829.28;5036919;28;45261;-61
2022/10/14 04:24:54;;;;;;;;;1.00;1.00;;;;;20.76;48.81;100818.66;5036912;28;45303;-61
2022/10/14 04:27:20;;;;;;;;;1.00;1.00;;;;;20.77;48.62;100822.16;5037621;28;45333;-63
2022/10/14 04:29:45;;;;;;;;;1.00;1.00;;;;;20.76;48.56;100820.44;5036953;28;46022;-63
2022/10/14 04:32:11;;;;;;;;;1.00;1.00;;;;;20.77;48.75;100816.88;5036740;28;45358;-61
2022/10/14 04:34:36;;;;;;;;;1.00;1.00;;;;;20.75;48.63;100809.06;5036885;28;45516;-64
2022/10/14 04:37:02;;;;;;;;;1.00;1.00;;;;;20.76;49.03;100815.19;5036887;28;45307;-63
2022/10/14 04:39:27;;;;;;;;;1.00;1.00;;;;;20.75;48.79;100816.13;5036799;28;46903;-60
2022/10/14 04:41:52;;;;;;;;;1.25;1.25;;;;;20.76;48.85;100826.56;5036578;28;45452;-61
2022/10/14 04:44:18;;;;;;;;;1.00;1.00;;;;;20.76;48.57;100826.56;5037221;28;45590;-60
2022/10/14 04:46:43;;;;;;;;;1.00;1.00;;;;;20.75;48.99;100818.75;5036543;28;49077;-60
2022/10/14 04:49:09;;;;;;;;;1.00;1.00;;;;;20.76;48.83;100826.56;5036184;28;46260;-60
2022/10/14 04:51:34;;;;;;;;;0.50;0.25;;;;;20.77;48.97;100819.53;5036277;28;45410;-61
2022/10/14 04:54:00;;;;;;;;;1.50;1.00;;;;;20.74;48.37;100806.47;5036453;28;45475;-61
2022/10/14 04:56:25;;;;;;;;;1.50;1.00;;;;;20.75;48.43;100789.78;5035681;28;45699;-60
2022/10/14 04:58:50;;;;;;;;;1.00;1.00;;;;;20.76;48.96;100810.75;5036895;28;45431;-62
2022/10/14 05:01:17;;;;;;;;;1.25;1.25;;;;;20.76;48.88;100807.28;5036259;28;45373;-62
2022/10/14 05:03:43;;;;;;;;;0.00;0.00;;;;;20.77;48.99;100811.63;5035113;28;45436;-62
2022/10/14 05:06:09;;;;;;;;;1.00;1.00;;;;;20.75;48.49;100808.22;5035026;28;45266;-62
2022/10/14 05:08:34;;;;;;;;;2.00;1.00;;;;;20.76;48.78;100809.91;5036167;28;46116;-63
2022/10/14 05:11:01;;;;;;;;;1.00;1.00;;;;;20.74;48.51;100804.72;5036026;28;45241;-62
2022/10/14 05:13:27;;;;;;;;;1.00;1.00;;;;;20.76;48.67;100804.66;5035155;28;45314;-60
2022/10/14 05:15:53;;;;;;;;;1.00;1.00;;;;;20.74;49.10;100806.47;5036198;28;45280;-63
2022/10/14 05:18:18;;;;;;;;;0.75;0.75;;;;;20.76;48.51;100809.91;5036335;28;46170;-64
2022/10/14 05:20:43;;;;;;;;;1.00;1.00;;;;;20.76;48.98;100809.91;5034934;28;45346;-64
2022/10/14 05:23:09;;;;;;;;;1.00;1.00;;;;;20.77;49.01;100806.34;5034742;28;45275;-65
2022/10/14 05:25:34;;;;;;;;;1.00;1.00;;;;;20.76;48.69;100804.66;5036344;28;45422;-66
2022/10/14 05:27:59;;;;;;;;;0.00;0.00;;;;;20.77;48.67;100803.72;5035683;28;46075;-65
2022/10/14 05:30:25;;;;;;;;;1.00;1.00;;;;;20.75;48.84;100787.97;5035781;28;50242;-62
2022/10/14 05:32:51;;;;;;;;;2.00;2.00;;;;;20.74;48.84;100785.41;5036327;28;45418;-61
2022/10/14 05:35:16;;;;;;;;;1.00;1.00;;;;;20.77;48.96;100790.53;5035793;28;45554;-61
2022/10/14 05:37:41;;;;;;;;;1.00;1.00;;;;;20.75;48.88;100785.34;5035819;28;46109;-63
2022/10/14 05:40:08;;;;;;;;;1.00;1.00;;;;;20.75;48.59;100787.16;5035765;28;45340;-64
2022/10/14 05:42:33;;;;;;;;;1.00;1.00;;;;;20.75;48.89;100787.16;5036116;28;45367;-61
2022/10/14 05:44:58;;;;;;;;;0.00;0.00;;;;;20.76;48.99;100783.59;5035880;28;45560;-61
2022/10/14 05:47:24;;;;;;;;;1.00;1.00;;;;;20.77;48.84;100790.53;5035750;28;45279;-60
2022/10/14 05:49:49;;;;;;;;;0.50;0.50;;;;;20.73;48.78;100784.56;5034966;28;45737;-59
2022/10/14 05:52:14;;;;;;;;;2.00;1.00;;;;;20.74;48.89;100786.28;5035597;28;45216;-60
2022/10/14 05:54:40;;;;;;;;;1.00;1.00;;;;;20.75;49.03;100792.41;5035892;28;45236;-60
2022/10/14 05:57:05;;;;;;;;;1.00;1.00;;;;;20.76;48.54;100799.38;5035516;28;45988;-61
2022/10/14 05:59:33;;;;;;;;;1.75;1.00;;;;;20.74;48.85;100786.28;5035536;28;45346;-60
2022/10/14 06:01:58;;;;;;;;;0.00;0.00;;;;;20.76;49.06;100799.38;5036340;28;45533;-64
2022/10/14 06:04:24;;;;;;;;;0.00;0.00;;;;;20.75;48.92;100806.41;5039521;28;45347;-62
2022/10/14 06:06:49;;;;;;;;;0.00;0.00;;;;;20.74;48.72;100807.34;5039407;28;46223;-64
2022/10/14 06:09:15;;;;;;;;;0.25;0.25;;;;;20.76;49.15;100805.47;5038328;28;60199;-62
2022/10/14 06:11:40;;;;;;;;;0.00;0.00;;;;;20.74;48.89;100801.22;5039751;28;45417;-62
2022/10/14 06:14:06;;;;;;;;;1.00;1.00;;;;;20.73;48.87;100797.72;5039174;28;45378;-60
2022/10/14 06:16:31;;;;;;;;;1.75;0.75;;;;;20.75;48.79;100805.59;5038837;28;45432;-61
2022/10/14 06:18:56;;;;;;;;;1.00;1.00;;;;;20.75;48.85;100800.31;5038848;28;45290;-60
2022/10/14 06:21:22;;;;;;;;;0.00;0.00;;;;;20.74;48.83;100798.59;5039532;28;45219;-60
2022/10/14 06:23:47;;;;;;;;;1.00;0.75;;;;;20.74;48.60;100798.59;5039356;28;45261;-64
2022/10/14 06:26:13;;;;;;;;;1.00;1.00;;;;;20.74;49.05;100806.47;5038519;28;46562;-61
2022/10/14 06:28:38;;;;;;;;;0.00;0.00;;;;;20.73;49.01;100800.34;5038843;28;45256;-65
2022/10/14 06:31:04;;;;;;;;;0.50;0.50;;;;;20.74;49.14;100801.22;5037405;28;45387;-63
2022/10/14 06:33:29;;;;;;;;;0.50;0.50;;;;;20.74;48.78;100801.22;5039148;28;45220;-61
2022/10/14 06:35:55;;;;;;;;;1.00;1.00;;;;;20.74;48.75;100802.09;5038257;28;46348;-61
2022/10/14 06:38:21;;;;;;;;;0.00;0.00;;;;;20.75;48.67;100805.59;5038967;28;45486;-60
2022/10/14 06:40:52;;;;;;;;;0.25;0.25;;;;;20.75;49.04;100808.22;5037594;28;45287;-60
2022/10/14 06:43:18;;;;;;;;;1.00;0.75;;;;;20.74;48.63;100796.81;5039262;28;45379;-60
2022/10/14 06:45:44;;;;;;;;;2.25;0.00;;;;;20.76;48.82;100802.03;5038564;28;46207;-60
2022/10/14 06:48:09;;;;;;;;;0.50;0.00;;;;;20.72;48.63;100797.81;5037084;28;46111;-59
2022/10/14 06:50:35;;;;;;;;;2.00;1.00;;;;;20.74;48.87;100806.47;5037431;28;45385;-60
2022/10/14 06:53:00;;;;;;;;;1.00;1.00;;;;;20.75;48.89;100803.78;5038788;28;45349;-60
2022/10/14 06:55:26;;;;;;;;;1.00;1.00;;;;;20.75;49.10;100811.69;5038339;28;45336;-60
2022/10/14 06:57:51;;;;;;;;;0.00;0.00;;;;;20.74;49.19;100801.22;5038403;28;51374;-60
2022/10/14 07:00:17;;;;;;;;;0.25;0.25;;;;;20.76;49.05;100809.91;5038432;28;45606;-60
2022/10/14 07:02:43;;;;;;;;;0.00;0.00;;;;;20.75;48.59;100805.59;5038887;28;45449;-60
2022/10/14 07:05:08;;;;;;;;;2.00;0.00;;;;;20.74;48.91;100812.63;5037862;28;46121;-60
2022/10/14 07:07:34;;;;;;;;;0.50;0.50;;;;;20.74;48.65;100811.75;5038227;28;45391;-61
2022/10/14 07:09:59;;;;;;;;;0.00;0.00;;;;;20.74;48.59;100822.28;5036573;28;45343;-60
2022/10/14 07:12:25;;;;;;;;;1.00;1.00;;;;;20.75;48.94;100824.03;5038225;28;45369;-59
2022/10/14 07:14:51;;;;;;;;;0.75;0.75;;;;;20.75;48.58;100831.91;5038228;28;46264;-60
2022/10/14 07:17:16;;;;;;;;;0.00;0.00;;;;;20.73;48.59;100831.13;5037846;28;45336;-61
2022/10/14 07:19:41;;;;;;;;;0.00;0.00;;;;;20.75;48.90;100834.56;5037849;28;49184;-60
2022/10/14 07:22:07;;;;;;;;;1.00;1.00;;;;;20.71;48.72;100833.84;5038123;28;45303;-60
2022/10/14 07:24:32;;;;;;;;;0.25;0.25;;;;;20.76;48.55;100841.53;5038040;28;45333;-60
2022/10/14 07:26:57;;;;;;;;;0.75;0.75;;;;;20.74;48.79;100838.97;5037676;28;46843;-64
2022/10/14 07:29:23;;;;;;;;;0.75;0.75;;;;;20.76;49.15;100841.53;5037918;28;45683;-60
2022/10/14 07:31:48;;;;;;;;;1.00;1.00;;;;;20.74;48.77;100844.22;5038402;28;45351;-59
2022/10/14 07:34:14;;;;;;;;;1.00;1.00;;;;;20.73;48.63;100849.56;5037293;28;45771;-60
2022/10/14 07:36:39;;;;;;;;;1.75;0.75;;;;;20.74;49.10;100854.75;5037655;28;45378;-60
2022/10/14 07:39:05;;;;;;;;;0.50;0.50;;;;;20.73;48.60;100846.94;5037645;28;45239;-60
2022/10/14 07:41:30;;;;;;;;;0.25;0.25;;;;;20.77;49.03;100864.31;5038076;28;45562;-59
2022/10/14 07:44:04;;;;;;;;;0.00;0.00;;;;;20.75;48.78;100860.91;5037542;28;46444;-61
2022/10/14 07:46:33;;;;;;;;;1.75;0.50;;;;;20.72;48.87;100858.38;5037799;28;45286;-64
2022/10/14 07:49:09;;;;;;;;;0.75;0.75;;;;;20.75;49.12;100872.25;5037588;28;45435;-61
2022/10/14 07:51:35;;;;;;;;;0.50;0.50;;;;;20.76;48.74;100859.97;5037895;28;45323;-64
2022/10/14 07:54:03;;;;;;;;;1.00;1.00;;;;;20.75;49.13;100859.09;5037216;28;46463;-60
2022/10/14 07:56:28;;;;;;;;;0.50;0.25;;;;;20.76;48.81;100859.97;5037613;28;45355;-63
2022/10/14 07:58:54;;;;;;;;;0.75;0.75;;;;;20.76;48.82;100867.88;5036164;28;45433;-64
2022/10/14 08:01:20;;;;;;;;;0.00;0.00;;;;;20.77;48.74;100869.56;5038105;28;45555;-64
2022/10/14 08:03:47;;;;;;;;;0.00;0.00;;;;;20.75;49.16;100868.78;5037118;28;45249;-61
2022/10/14 08:06:13;;;;;;;;;1.00;1.00;;;;;20.76;49.05;100867.88;5037218;28;45922;-61
2022/10/14 08:08:40;;;;;;;;;2.50;1.00;;;;;20.75;48.71;100871.44;5037539;28;45414;-63
2022/10/14 08:11:12;;;;;;;;;0.25;0.25;;;;;20.76;49.08;100875.75;5037338;28;45347;-59
2022/10/14 08:13:39;;;;;;;;;0.25;0.25;;;;;20.76;48.70;100886.31;5037275;28;46841;-60
2022/10/14 08:16:16;;;;;;;;;0.00;0.00;;;;;20.76;48.85;100884.50;5036896;28;45374;-59
2022/10/14 08:18:42;;;;;;;;;1.00;1.00;;;;;20.74;49.05;100880.22;5037268;28;45335;-62
2022/10/14 08:21:08;;;;;;;;;0.00;0.00;;;;;20.76;48.98;100888.94;5037394;28;45322;-60
2022/10/14 08:23:33;;;;;;;;;0.25;0.25;;;;;20.76;48.71;100883.66;5037626;28;46029;-59
2022/10/14 08:25:58;;;;;;;;;3.00;1.00;;;;;20.75;48.88;100882.81;5036536;28;45330;-59
2022/10/14 08:28:24;;;;;;;;;0.00;0.00;;;;;20.76;49.28;100881.03;5037071;28;45204;-59
2022/10/14 08:30:49;;;;;;;;;0.00;0.00;;;;;20.76;48.65;100884.50;5037630;28;45480;-60
2022/10/14 08:33:15;;;;;;;;;1.50;0.00;;;;;20.74;48.98;100881.09;5035367;28;47320;-59
